Time;durP1;ratioP1;P1;durP2;ratioP2;P2;SDS_P1;SDS_P2;PMS_P1;PMS_P2;Temp;Humidity;BMP_temperature;BMP_pressure;BME280_temperature;BME280_humidity;BME280_pressure;Samples;Min_cycle;Max_cycle;Signal;HPM_P1;HPM_P2
2022/05/09 00:01:06;;;;;;;8.70;7.90;;;13.60;78.50;;;;;;4991463;28;20463;-72
2022/05/09 00:03:33;;;;;;;8.27;7.50;;;13.50;79.30;;;;;;4975711;28;20452;-72
2022/05/09 00:06:02;;;;;;;9.03;8.13;;;13.50;79.60;;;;;;4985009;28;20797;-70
2022/05/09 00:08:29;;;;;;;9.00;8.17;;;13.50;80.60;;;;;;4997736;28;20434;-73
2022/05/09 00:10:56;;;;;;;8.87;7.97;;;13.30;80.70;;;;;;4989064;28;20899;-71
2022/05/09 00:13:23;;;;;;;9.27;8.10;;;13.40;81.70;;;;;;4978787;28;20492;-71
2022/05/09 00:15:50;;;;;;;9.13;8.10;;;13.30;83.20;;;;;;4980859;28;20213;-71
2022/05/09 00:18:19;;;;;;;9.27;8.25;;;13.30;83.50;;;;;;4982158;28;20431;-70
2022/05/09 00:20:46;;;;;;;9.10;8.20;;;13.20;83.40;;;;;;4981547;28;20252;-71
2022/05/09 00:23:16;;;;;;;9.07;8.27;;;13.20;83.50;;;;;;4981864;28;20239;-71
2022/05/09 00:25:43;;;;;;;10.50;8.02;;;13.20;83.50;;;;;;4981840;28;20456;-71
2022/05/09 00:28:10;;;;;;;9.83;8.83;;;13.10;84.50;;;;;;4988915;28;20207;-71
2022/05/09 00:30:37;;;;;;;9.13;8.15;;;13.10;85.60;;;;;;4990958;28;20459;-72
2022/05/09 00:33:04;;;;;;;8.70;7.97;;;13.10;86.50;;;;;;4975032;28;20205;-71
2022/05/09 00:35:31;;;;;;;8.90;8.10;;;13.00;86.40;;;;;;4976183;28;20205;-71
2022/05/09 00:37:58;;;;;;;10.25;8.35;;;12.90;87.10;;;;;;4995473;28;20315;-71
2022/05/09 00:40:26;;;;;;;9.73;8.93;;;12.90;89.40;;;;;;4995049;28;20561;-71
2022/05/09 00:42:55;;;;;;;10.23;9.25;;;12.90;90.30;;;;;;4975106;28;20479;-72
2022/05/09 00:45:24;;;;;;;11.00;9.90;;;12.90;90.20;;;;;;4977954;28;20295;-71
2022/05/09 00:47:57;;;;;;;9.40;8.60;;;12.90;90.80;;;;;;4993360;28;20307;-72
2022/05/09 00:50:27;;;;;;;9.10;8.20;;;13.00;90.60;;;;;;4988913;28;20205;-71
2022/05/09 00:52:58;;;;;;;10.50;9.10;;;12.90;90.50;;;;;;4973983;28;20574;-71
2022/05/09 00:55:29;;;;;;;10.20;9.27;;;12.90;90.50;;;;;;4977945;28;20212;-71
2022/05/09 00:58:03;;;;;;;9.38;8.57;;;12.80;90.60;;;;;;4993687;28;20209;-72
2022/05/09 01:00:30;;;;;;;10.90;9.80;;;12.80;91.10;;;;;;4988595;28;20288;-71
2022/05/09 01:03:02;;;;;;;10.15;9.25;;;12.80;91.50;;;;;;4974054;28;20229;-72
2022/05/09 01:05:29;;;;;;;9.95;8.95;;;12.70;91.50;;;;;;4976874;28;20201;-72
2022/05/09 01:07:58;;;;;;;10.02;9.10;;;12.70;91.50;;;;;;4992844;28;20241;-72
2022/05/09 01:10:30;;;;;;;10.05;9.15;;;12.70;91.40;;;;;;4973212;28;20213;-71
2022/05/09 01:12:59;;;;;;;10.77;9.77;;;12.60;91.10;;;;;;4973100;28;20209;-71
2022/05/09 01:15:26;;;;;;;12.07;8.90;;;12.60;91.90;;;;;;4973769;28;20209;-72
2022/05/09 01:17:53;;;;;;;10.55;9.65;;;12.60;92.30;;;;;;4974926;28;20201;-71
2022/05/09 01:20:20;;;;;;;11.18;10.18;;;12.50;92.30;;;;;;4972614;28;20220;-72
2022/05/09 01:22:49;;;;;;;11.00;10.00;;;12.40;92.80;;;;;;4980305;28;20235;-70
2022/05/09 01:25:18;;;;;;;11.20;10.10;;;12.40;93.00;;;;;;4993078;28;20744;-71
2022/05/09 01:27:47;;;;;;;10.20;9.30;;;12.40;93.70;;;;;;4977942;28;20201;-73
2022/05/09 01:30:18;;;;;;;10.77;9.77;;;12.30;93.70;;;;;;4973553;28;20356;-71
2022/05/09 01:32:50;;;;;;;16.45;9.60;;;12.20;93.70;;;;;;4988469;28;20204;-72
2022/05/09 01:35:20;;;;;;;10.20;9.10;;;12.20;94.10;;;;;;4989978;28;20205;-72
2022/05/09 01:37:53;;;;;;;12.38;10.80;;;12.20;94.80;;;;;;4974884;28;20635;-71
2022/05/09 01:40:20;;;;;;;11.05;9.95;;;12.20;94.90;;;;;;4974852;28;21644;-71
2022/05/09 01:42:46;;;;;;;11.82;10.10;;;12.20;94.80;;;;;;4973786;28;20225;-70
2022/05/09 01:45:14;;;;;;;10.77;9.60;;;12.20;95.30;;;;;;4985706;28;20239;-70
2022/05/09 01:50:26;;;;;;;10.80;9.80;;;12.20;94.80;;;;;;4998687;28;20208;-72
2022/05/09 01:52:54;;;;;;;10.60;9.60;;;12.10;95.10;;;;;;5001278;28;20208;-72
2022/05/09 01:55:21;;;;;;;10.98;9.88;;;12.10;95.40;;;;;;4985952;28;20847;-73
2022/05/09 01:57:49;;;;;;;9.60;8.70;;;12.10;95.60;;;;;;4973476;28;20287;-72
2022/05/09 02:00:17;;;;;;;10.57;9.25;;;12.00;95.60;;;;;;4983446;28;20231;-71
2022/05/09 02:02:44;;;;;;;10.68;9.65;;;12.00;95.70;;;;;;4986475;28;20236;-72
2022/05/09 02:05:11;;;;;;;11.45;10.38;;;12.00;96.20;;;;;;4976458;28;20295;-72
2022/05/09 02:07:38;;;;;;;10.18;9.18;;;12.00;96.10;;;;;;4992803;28;20216;-71
2022/05/09 02:10:07;;;;;;;11.20;10.15;;;11.90;96.30;;;;;;4990430;28;20577;-72
2022/05/09 02:12:34;;;;;;;12.25;10.95;;;11.90;97.20;;;;;;4972784;28;20229;-72
2022/05/09 02:15:02;;;;;;;11.45;10.27;;;11.90;97.10;;;;;;4973646;28;20224;-71
2022/05/09 02:17:29;;;;;;;11.68;10.57;;;11.90;97.00;;;;;;4992603;28;20208;-71
2022/05/09 02:19:56;;;;;;;12.02;10.82;;;11.80;97.40;;;;;;4991712;28;20247;-71
2022/05/09 02:22:22;;;;;;;14.00;10.63;;;11.80;97.60;;;;;;4973025;28;20396;-72
2022/05/09 02:24:49;;;;;;;12.23;11.02;;;11.80;98.00;;;;;;4975238;28;20211;-72
2022/05/09 02:27:17;;;;;;;11.20;10.20;;;11.80;98.50;;;;;;4976945;28;20215;-72
2022/05/09 02:29:44;;;;;;;12.65;11.45;;;11.80;98.60;;;;;;4976292;28;20205;-71
2022/05/09 02:32:13;;;;;;;13.93;11.18;;;11.70;98.70;;;;;;4976954;28;20221;-71
2022/05/09 02:34:40;;;;;;;12.77;11.57;;;11.70;99.00;;;;;;4976704;28;20279;-71
2022/05/09 02:37:07;;;;;;;11.88;10.65;;;11.70;99.10;;;;;;4977210;28;20234;-71
2022/05/09 02:39:34;;;;;;;14.18;11.65;;;11.70;99.10;;;;;;4988923;28;20603;-71
2022/05/09 02:42:01;;;;;;;14.15;12.85;;;11.60;99.30;;;;;;4995693;28;20232;-71
2022/05/09 02:44:29;;;;;;;13.10;11.70;;;11.60;99.10;;;;;;4983528;28;20216;-72
2022/05/09 02:46:56;;;;;;;13.35;11.68;;;11.60;99.80;;;;;;4976136;28;20231;-72
2022/05/09 02:49:24;;;;;;;12.40;11.30;;;11.60;99.70;;;;;;4986118;28;20788;-72
2022/05/09 02:51:52;;;;;;;12.32;11.23;;;11.60;99.90;;;;;;4995516;28;20230;-72
2022/05/09 02:54:19;;;;;;;14.23;12.73;;;11.60;99.90;;;;;;4985900;28;20209;-72
2022/05/09 02:56:46;;;;;;;12.93;11.73;;;11.60;99.90;;;;;;4982747;28;20204;-71
2022/05/09 02:59:12;;;;;;;14.02;12.52;;;11.60;99.90;;;;;;4995364;28;20322;-71
2022/05/09 03:01:41;;;;;;;16.17;11.82;;;11.60;99.90;;;;;;4977064;28;20236;-71
2022/05/09 03:06:52;;;;;;;13.05;11.85;;;11.50;99.90;;;;;;4994874;28;20294;-72
2022/05/09 03:09:18;;;;;;;13.48;12.18;;;11.40;99.90;;;;;;4995289;28;20335;-71
2022/05/09 03:11:46;;;;;;;13.52;12.20;;;11.40;99.90;;;;;;4977235;28;20305;-72
2022/05/09 03:14:12;;;;;;;13.75;12.38;;;11.40;99.90;;;;;;4977949;28;20785;-72
2022/05/09 03:16:40;;;;;;;12.82;11.65;;;11.30;99.90;;;;;;4994991;28;20208;-72
2022/05/09 03:19:07;;;;;;;13.90;12.00;;;11.30;99.90;;;;;;4992643;28;20216;-70
2022/05/09 03:21:34;;;;;;;12.60;11.35;;;11.30;99.90;;;;;;4975771;28;20239;-71
2022/05/09 03:24:01;;;;;;;14.07;12.68;;;11.30;99.90;;;;;;4975794;28;20229;-70
2022/05/09 03:26:28;;;;;;;12.80;11.60;;;11.30;99.90;;;;;;4996030;28;20272;-71
2022/05/09 03:28:55;;;;;;;13.52;12.23;;;11.30;99.90;;;;;;4997512;28;20264;-71
2022/05/09 03:31:21;;;;;;;12.35;11.20;;;11.20;99.90;;;;;;4978619;28;20221;-71
2022/05/09 03:33:50;;;;;;;12.98;11.60;;;11.10;99.90;;;;;;4990467;28;20215;-73
2022/05/09 03:36:17;;;;;;;14.27;12.77;;;11.10;99.90;;;;;;4994502;28;20215;-72
2022/05/09 03:38:43;;;;;;;15.18;12.85;;;11.00;99.90;;;;;;4980536;28;20219;-72
2022/05/09 03:41:10;;;;;;;12.93;11.55;;;11.00;99.90;;;;;;4974908;28;20229;-72
2022/05/09 03:43:37;;;;;;;15.85;13.20;;;11.00;99.90;;;;;;4987313;28;20585;-73
2022/05/09 03:46:04;;;;;;;12.48;11.35;;;11.00;99.90;;;;;;4994604;28;20209;-72
2022/05/09 03:48:31;;;;;;;13.15;11.95;;;11.00;99.90;;;;;;4983792;28;20201;-70
2022/05/09 03:51:01;;;;;;;15.02;12.45;;;11.00;99.90;;;;;;4989100;28;20263;-72
2022/05/09 03:53:28;;;;;;;13.80;12.50;;;11.00;99.90;;;;;;4994803;28;20201;-73
2022/05/09 03:55:56;;;;;;;14.27;12.48;;;11.00;99.90;;;;;;4995112;28;20212;-72
2022/05/09 03:58:23;;;;;;;13.85;12.38;;;11.00;99.90;;;;;;4997727;28;20311;-71
2022/05/09 04:00:51;;;;;;;14.02;12.30;;;11.00;99.90;;;;;;4995851;28;20236;-71
2022/05/09 04:03:19;;;;;;;14.85;13.35;;;10.90;99.90;;;;;;4989279;28;20232;-71
2022/05/09 04:05:46;;;;;;;14.98;13.50;;;10.90;99.90;;;;;;4974965;28;20209;-72
2022/05/09 04:08:17;;;;;;;14.20;12.80;;;10.90;99.90;;;;;;4980120;28;20563;-72
2022/05/09 04:10:44;;;;;;;15.13;12.70;;;10.90;99.90;;;;;;4993921;28;20324;-72
2022/05/09 04:13:11;;;;;;;13.82;12.43;;;10.90;99.90;;;;;;4983624;28;20209;-71
2022/05/09 04:18:26;;;;;;;14.35;12.82;;;10.90;99.90;;;;;;4974772;28;20580;-72
2022/05/09 04:20:53;;;;;;;15.05;13.43;;;10.90;99.90;;;;;;4974554;28;20259;-71
2022/05/09 04:23:22;;;;;;;16.23;13.60;;;10.90;99.90;;;;;;4985269;28;20716;-71
2022/05/09 04:25:49;;;;;;;14.73;13.25;;;10.90;99.90;;;;;;4993782;28;20263;-71
2022/05/09 04:28:18;;;;;;;14.95;13.50;;;11.00;99.90;;;;;;4983941;28;20201;-70
2022/05/09 04:30:45;;;;;;;13.45;12.18;;;11.10;99.90;;;;;;4974074;28;20324;-71
2022/05/09 04:33:13;;;;;;;14.73;13.32;;;11.10;99.90;;;;;;4983210;28;20192;-70
2022/05/09 04:35:42;;;;;;;13.95;12.65;;;11.20;99.90;;;;;;4987795;28;20208;-71
2022/05/09 04:38:14;;;;;;;13.68;11.55;;;11.30;99.90;;;;;;4974336;28;20264;-73
2022/05/09 04:40:48;;;;;;;14.23;12.57;;;11.40;99.90;;;;;;4980216;28;20232;-73
2022/05/09 04:43:14;;;;;;;13.10;11.95;;;11.60;99.90;;;;;;4993747;28;20216;-71
2022/05/09 04:45:42;;;;;;;12.93;11.43;;;12.00;99.80;;;;;;4988500;28;20292;-71
2022/05/09 04:48:09;;;;;;;11.55;10.45;;;12.50;95.20;;;;;;4975024;28;20216;-72
2022/05/09 04:50:35;;;;;;;12.23;10.85;;;12.80;91.70;;;;;;4977834;28;20229;-72
2022/05/09 04:53:03;;;;;;;11.43;10.30;;;13.10;85.10;;;;;;4994068;28;20215;-71
2022/05/09 04:55:30;;;;;;;10.43;9.45;;;13.30;84.30;;;;;;4991140;28;20197;-72
2022/05/09 04:57:59;;;;;;;12.52;9.77;;;13.80;79.70;;;;;;4974133;28;20209;-71
2022/05/09 05:00:28;;;;;;;11.25;10.25;;;13.80;75.40;;;;;;4980094;28;20211;-70
2022/05/09 05:02:56;;;;;;;10.05;9.15;;;14.10;73.80;;;;;;4993528;28;20213;-72
2022/05/09 05:05:23;;;;;;;13.17;9.07;;;14.50;70.30;;;;;;4988219;28;20197;-71
2022/05/09 05:07:50;;;;;;;10.27;9.27;;;14.40;71.60;;;;;;4974146;28;20438;-72
2022/05/09 05:10:18;;;;;;;9.98;9.07;;;14.20;71.40;;;;;;4977744;28;20204;-71
2022/05/09 05:12:45;;;;;;;9.93;9.10;;;14.40;72.30;;;;;;4993549;28;20214;-70
2022/05/09 05:15:13;;;;;;;9.20;8.40;;;14.60;68.70;;;;;;4991584;28;20483;-71
2022/05/09 05:17:41;;;;;;;10.53;9.53;;;15.30;65.30;;;;;;4975297;28;20592;-73
2022/05/09 05:20:12;;;;;;;11.10;10.00;;;14.90;64.70;;;;;;4975943;28;20435;-73
2022/05/09 05:22:40;;;;;;;10.60;9.60;;;15.00;65.50;;;;;;4998587;28;20491;-72
2022/05/09 05:25:08;;;;;;;10.27;9.17;;;14.80;67.10;;;;;;4997428;28;20523;-73
2022/05/09 05:27:35;;;;;;;10.20;9.30;;;14.80;67.50;;;;;;4981985;28;20456;-71
2022/05/09 05:30:02;;;;;;;11.30;10.30;;;14.90;66.00;;;;;;4983671;28;20424;-71
2022/05/09 05:32:34;;;;;;;11.10;10.10;;;15.00;65.90;;;;;;4973408;28;20910;-71
2022/05/09 05:35:01;;;;;;;11.50;10.20;;;15.10;64.50;;;;;;4988599;28;20459;-73
2022/05/09 05:37:28;;;;;;;10.60;9.70;;;15.00;66.50;;;;;;4987726;28;20463;-72
2022/05/09 05:39:57;;;;;;;10.50;9.53;;;14.90;66.20;;;;;;4987849;28;20840;-72
2022/05/09 05:42:24;;;;;;;11.13;10.07;;;15.10;65.60;;;;;;4983799;28;20509;-72
2022/05/09 05:44:51;;;;;;;10.90;9.90;;;15.20;65.00;;;;;;4986032;28;20978;-72
2022/05/09 05:47:20;;;;;;;10.23;9.33;;;15.50;63.70;;;;;;4986630;28;20979;-72
2022/05/09 05:49:48;;;;;;;12.37;10.63;;;15.30;63.90;;;;;;4987537;28;20875;-72
2022/05/09 05:52:16;;;;;;;11.00;9.90;;;15.50;63.70;;;;;;4982661;28;20480;-72
2022/05/09 05:54:46;;;;;;;11.20;9.50;;;16.10;61.30;;;;;;4995365;28;20458;-73
2022/05/09 05:57:21;;;;;;;10.00;9.10;;;16.10;60.20;;;;;;4989951;28;20625;-72
2022/05/09 05:59:49;;;;;;;9.97;9.07;;;16.60;58.30;;;;;;4988688;28;20806;-72
2022/05/09 06:02:16;;;;;;;12.10;9.17;;;16.70;57.30;;;;;;4982471;28;20986;-72
2022/05/09 06:04:43;;;;;;;9.33;8.53;;;16.70;55.50;;;;;;5002000;28;20466;-73
2022/05/09 06:07:12;;;;;;;12.23;9.10;;;16.40;59.10;;;;;;5009683;28;20522;-73
2022/05/09 06:09:40;;;;;;;9.90;9.00;;;16.60;57.70;;;;;;4985296;28;20868;-73
2022/05/09 06:12:07;;;;;;;10.40;8.80;;;16.90;56.90;;;;;;4993155;28;20462;-72
2022/05/09 06:14:34;;;;;;;9.77;8.97;;;16.70;56.00;;;;;;4986400;28;20452;-72
2022/05/09 06:17:02;;;;;;;9.97;8.97;;;16.60;57.70;;;;;;4983181;28;20430;-72
2022/05/09 06:19:29;;;;;;;12.30;9.70;;;16.80;55.60;;;;;;4994219;28;20433;-72
2022/05/09 06:21:56;;;;;;;12.63;9.50;;;16.40;57.50;;;;;;5002216;28;20859;-72
2022/05/09 06:24:24;;;;;;;13.60;8.90;;;16.60;58.10;;;;;;5010895;28;20484;-72
2022/05/09 06:26:51;;;;;;;10.67;9.67;;;17.10;55.90;;;;;;5006970;28;20456;-72
2022/05/09 06:29:18;;;;;;;11.00;9.90;;;17.30;56.10;;;;;;4997401;28;20787;-72
2022/05/09 06:31:45;;;;;;;10.00;9.07;;;16.50;57.10;;;;;;4984831;28;20859;-74
2022/05/09 06:34:13;;;;;;;10.10;9.10;;;16.60;57.20;;;;;;4996423;28;20986;-72
2022/05/09 06:36:41;;;;;;;11.77;10.57;;;16.70;57.30;;;;;;4983132;28;20445;-72
2022/05/09 06:39:09;;;;;;;10.87;9.87;;;16.70;56.70;;;;;;4980385;28;20493;-71
2022/05/09 06:41:38;;;;;;;12.37;9.90;;;16.60;57.20;;;;;;4993405;28;20449;-72
2022/05/09 06:44:05;;;;;;;11.50;10.40;;;16.60;57.20;;;;;;4999278;28;20489;-73
2022/05/09 06:46:33;;;;;;;12.43;10.27;;;16.50;57.50;;;;;;5002120;28;20436;-72
2022/05/09 06:49:01;;;;;;;11.90;10.80;;;16.20;59.40;;;;;;4999064;28;20431;-71
2022/05/09 06:51:27;;;;;;;11.27;9.90;;;16.00;60.50;;;;;;4977677;28;20455;-73
2022/05/09 06:53:54;;;;;;;10.90;9.87;;;16.00;61.10;;;;;;4978418;28;20463;-72
2022/05/09 06:56:22;;;;;;;12.60;11.30;;;16.10;60.00;;;;;;4978389;28;20494;-73
2022/05/09 06:58:50;;;;;;;12.40;11.10;;;16.00;60.70;;;;;;4979578;28;20427;-73
2022/05/09 07:01:18;;;;;;;15.57;11.43;;;16.10;60.50;;;;;;4977698;28;20828;-72
2022/05/09 07:03:46;;;;;;;12.10;9.70;;;16.00;60.50;;;;;;4992367;28;20462;-72
2022/05/09 07:06:12;;;;;;;10.77;9.67;;;16.20;60.10;;;;;;4976274;28;20510;-73
2022/05/09 07:08:40;;;;;;;12.23;11.00;;;16.20;60.20;;;;;;4997664;28;20458;-74
2022/05/09 07:11:08;;;;;;;11.57;10.57;;;16.20;59.80;;;;;;5002132;28;21079;-74
2022/05/09 07:13:35;;;;;;;11.37;10.27;;;16.30;59.90;;;;;;4983925;28;20440;-74
2022/05/09 07:16:04;;;;;;;12.10;10.80;;;16.10;60.00;;;;;;4976842;28;20448;-73
2022/05/09 07:18:31;;;;;;;13.13;11.03;;;16.10;59.70;;;;;;4979437;28;20468;-74
2022/05/09 07:20:58;;;;;;;10.97;9.93;;;16.20;59.10;;;;;;4976834;28;20458;-71
2022/05/09 07:23:25;;;;;;;11.53;10.50;;;16.40;59.70;;;;;;4978039;28;20471;-74
2022/05/09 07:25:55;;;;;;;11.23;9.57;;;16.60;58.40;;;;;;4989628;28;20710;-73
2022/05/09 07:28:22;;;;;;;10.27;9.27;;;16.80;58.20;;;;;;4997068;28;20434;-72
2022/05/09 07:30:50;;;;;;;10.40;9.50;;;17.00;57.40;;;;;;4977276;28;20464;-72
2022/05/09 07:33:20;;;;;;;10.73;9.73;;;17.10;55.90;;;;;;4976021;28;20485;-72
2022/05/09 07:35:47;;;;;;;9.53;8.63;;;16.80;56.60;;;;;;4976738;28;20457;-72
2022/05/09 07:38:14;;;;;;;11.00;9.90;;;17.00;57.90;;;;;;4977288;28;20482;-73
2022/05/09 07:40:42;;;;;;;13.40;10.23;;;17.20;56.10;;;;;;4975581;28;20461;-71
2022/05/09 07:43:12;;;;;;;11.07;9.93;;;16.90;56.10;;;;;;4975559;28;20463;-71
2022/05/09 07:45:40;;;;;;;11.83;10.73;;;16.90;57.10;;;;;;4975723;28;20478;-72
2022/05/09 07:48:07;;;;;;;10.40;9.40;;;16.90;57.50;;;;;;4976195;28;20464;-71
2022/05/09 07:50:36;;;;;;;15.17;9.40;;;17.30;56.50;;;;;;4994984;28;20450;-71
2022/05/09 07:53:09;;;;;;;10.93;9.37;;;17.40;56.20;;;;;;4995329;28;20441;-72
2022/05/09 07:55:36;;;;;;;11.17;10.07;;;17.70;56.50;;;;;;4980805;28;20456;-70
2022/05/09 07:58:03;;;;;;;12.37;8.80;;;17.60;54.70;;;;;;4977409;28;20457;-72
2022/05/09 08:00:30;;;;;;;11.40;9.50;;;17.70;56.00;;;;;;4997382;28;21354;-74
2022/05/09 08:02:57;;;;;;;10.33;9.33;;;17.90;53.80;;;;;;4993287;28;20539;-73
2022/05/09 08:05:24;;;;;;;11.10;9.90;;;17.90;53.70;;;;;;4994874;28;20481;-72
2022/05/09 08:07:52;;;;;;;10.73;9.67;;;17.80;54.00;;;;;;4995105;28;20521;-71
2022/05/09 08:10:20;;;;;;;10.37;9.37;;;17.80;53.90;;;;;;5010985;28;20843;-73
2022/05/09 08:12:47;;;;;;;11.00;9.97;;;17.90;54.40;;;;;;4999864;28;20546;-73
2022/05/09 08:15:16;;;;;;;11.13;9.50;;;18.00;53.70;;;;;;4995689;28;20502;-73
2022/05/09 08:17:46;;;;;;;10.17;9.17;;;18.10;53.40;;;;;;4982666;28;20461;-76
2022/05/09 08:20:13;;;;;;;10.40;9.23;;;18.30;52.50;;;;;;4977760;28;20555;-74
2022/05/09 08:22:41;;;;;;;11.70;9.63;;;18.50;51.90;;;;;;4993648;28;20466;-72
2022/05/09 08:25:12;;;;;;;9.40;8.60;;;18.80;51.20;;;;;;4995098;28;20537;-71
2022/05/09 08:27:39;;;;;;;10.03;9.07;;;18.70;50.50;;;;;;4975916;28;20447;-73
2022/05/09 08:30:08;;;;;;;12.77;9.47;;;18.40;51.60;;;;;;4974886;28;20804;-73
2022/05/09 08:32:36;;;;;;;10.40;9.43;;;18.50;51.40;;;;;;4991575;28;20462;-73
2022/05/09 08:35:04;;;;;;;9.53;8.53;;;18.70;51.20;;;;;;4994477;28;20830;-73
2022/05/09 08:37:32;;;;;;;9.60;8.80;;;18.90;50.70;;;;;;4994516;28;20490;-73
2022/05/09 08:39:59;;;;;;;9.53;8.70;;;18.80;51.00;;;;;;4994802;28;20459;-73
2022/05/09 08:42:41;;;;;;;10.30;9.10;;;18.90;50.00;;;;;;4995811;28;20612;-73
2022/05/09 08:45:31;;;;;;;10.90;8.50;;;19.00;49.70;;;;;;4995464;28;20491;-74
2022/05/09 08:48:26;;;;;;;9.30;8.50;;;19.10;49.20;;;;;;4996207;28;20513;-71
2022/05/09 08:51:04;;;;;;;11.93;8.77;;;18.90;49.50;;;;;;4994871;28;20498;-74
2022/05/09 08:53:36;;;;;;;10.90;9.47;;;19.10;49.40;;;;;;4994545;28;20433;-75
2022/05/09 08:56:04;;;;;;;10.53;9.40;;;19.30;48.20;;;;;;4977822;28;20424;-75
2022/05/09 08:58:41;;;;;;;10.30;9.23;;;19.50;48.40;;;;;;4974312;28;20600;-74
2022/05/09 09:01:14;;;;;;;8.60;7.90;;;19.60;48.50;;;;;;4990293;28;20454;-74
2022/05/09 09:03:45;;;;;;;9.80;8.90;;;19.80;48.60;;;;;;4994273;28;20449;-72
2022/05/09 09:06:21;;;;;;;9.90;8.90;;;20.00;47.20;;;;;;4978573;28;20759;-72
2022/05/09 09:09:02;;;;;;;10.60;9.60;;;20.10;46.70;;;;;;4979483;28;20450;-73
2022/05/09 09:11:42;;;;;;;9.93;8.80;;;20.10;46.70;;;;;;4993836;28;20442;-75
2022/05/09 09:14:16;;;;;;;9.63;8.73;;;20.00;46.50;;;;;;4993912;28;20432;-73
2022/05/09 09:17:16;;;;;;;11.80;7.73;;;20.10;46.70;;;;;;4994423;28;20455;-73
2022/05/09 09:20:01;;;;;;;10.27;8.60;;;20.40;46.20;;;;;;4974671;28;20475;-73
2022/05/09 09:22:43;;;;;;;9.20;7.80;;;20.50;46.00;;;;;;4974434;28;20456;-73
2022/05/09 09:25:31;;;;;;;10.27;8.30;;;20.60;46.00;;;;;;4973973;28;20473;-73
2022/05/09 09:28:03;;;;;;;8.60;7.90;;;20.40;45.30;;;;;;4973904;28;20434;-73
2022/05/09 09:30:32;;;;;;;8.80;8.07;;;20.50;45.10;;;;;;4985521;28;20502;-73
2022/05/09 09:33:00;;;;;;;9.63;8.30;;;20.50;45.60;;;;;;4992949;28;20538;-72
2022/05/09 09:35:33;;;;;;;9.23;8.40;;;20.70;44.20;;;;;;4986346;28;20427;-73
2022/05/09 09:38:08;;;;;;;10.60;7.93;;;20.80;43.80;;;;;;4989803;28;20452;-75
2022/05/09 09:40:35;;;;;;;11.63;8.23;;;20.90;44.40;;;;;;4992991;28;20479;-74
2022/05/09 09:43:02;;;;;;;9.60;8.60;;;21.10;43.90;;;;;;4994422;28;20469;-72
2022/05/09 09:45:36;;;;;;;8.67;7.80;;;21.10;43.70;;;;;;4983277;28;20580;-72
2022/05/09 09:48:12;;;;;;;9.00;8.10;;;21.30;43.50;;;;;;4974548;28;20456;-73
2022/05/09 09:50:55;;;;;;;8.80;8.10;;;21.20;42.80;;;;;;4990842;28;20566;-72
2022/05/09 09:53:37;;;;;;;11.77;7.80;;;20.70;44.10;;;;;;4997624;28;20425;-73
2022/05/09 09:56:11;;;;;;;8.77;7.97;;;20.90;43.10;;;;;;4981578;28;20439;-73
2022/05/09 09:58:39;;;;;;;9.63;7.20;;;21.00;43.00;;;;;;4979815;28;20456;-75
2022/05/09 10:01:11;;;;;;;8.17;7.47;;;21.30;42.40;;;;;;4997986;28;20572;-74
2022/05/09 10:03:39;;;;;;;9.20;7.00;;;21.60;41.10;;;;;;4995804;28;20451;-72
2022/05/09 10:06:15;;;;;;;8.97;8.10;;;21.60;41.10;;;;;;4994669;28;20495;-73
2022/05/09 10:08:43;;;;;;;9.13;8.20;;;21.80;40.50;;;;;;4981297;28;20440;-72
2022/05/09 10:11:13;;;;;;;7.90;7.20;;;21.70;40.40;;;;;;4975771;28;20457;-74
2022/05/09 10:13:44;;;;;;;9.00;7.47;;;21.80;40.50;;;;;;4979617;28;20454;-75
2022/05/09 10:16:14;;;;;;;7.40;6.70;;;21.80;40.50;;;;;;4984472;28;20437;-74
2022/05/09 10:18:44;;;;;;;10.03;7.70;;;22.00;40.70;;;;;;5003945;28;20528;-74
2022/05/09 10:24:47;;;;;;;10.10;7.57;;;22.20;40.90;;;;;;4999080;28;20534;-73
2022/05/09 10:26:58;;;;;;;8.90;7.07;;;21.90;40.60;;;;;;4987768;28;20420;-73
2022/05/09 10:29:34;;;;;;;8.80;7.40;;;21.60;40.90;;;;;;5010186;28;20451;-74
2022/05/09 10:32:07;;;;;;;8.10;7.30;;;21.90;40.60;;;;;;5008773;28;20585;-73
2022/05/09 10:34:43;;;;;;;7.90;7.10;;;22.10;40.50;;;;;;4980788;28;20533;-73
2022/05/09 10:37:17;;;;;;;7.63;7.03;;;22.20;39.40;;;;;;4988502;28;20934;-73
2022/05/09 10:39:51;;;;;;;7.53;6.40;;;22.40;38.90;;;;;;4973510;28;20974;-73
2022/05/09 10:42:23;;;;;;;8.83;7.63;;;22.50;38.30;;;;;;4987983;28;20995;-73
2022/05/09 10:44:57;;;;;;;7.60;6.87;;;22.40;38.70;;;;;;4996334;28;20578;-73
2022/05/09 10:47:35;;;;;;;7.47;6.77;;;22.50;38.20;;;;;;4996373;28;20445;-72
2022/05/09 10:50:17;;;;;;;7.73;6.87;;;22.40;37.70;;;;;;4996118;28;20426;-74
2022/05/09 10:52:55;;;;;;;10.50;7.03;;;22.40;37.80;;;;;;4977504;28;20470;-73
2022/05/09 10:55:27;;;;;;;7.40;6.53;;;22.30;39.00;;;;;;4976942;28;20438;-72
2022/05/09 10:58:03;;;;;;;7.97;7.30;;;22.30;39.10;;;;;;4978206;28;20473;-74
2022/05/09 11:00:34;;;;;;;8.03;7.20;;;22.30;37.90;;;;;;4978054;28;20466;-72
2022/05/09 11:03:13;;;;;;;7.60;7.00;;;22.50;38.40;;;;;;4977994;28;20430;-73
2022/05/09 11:05:58;;;;;;;9.93;6.83;;;22.70;37.20;;;;;;4993891;28;20492;-75
2022/05/09 11:08:30;;;;;;;7.30;6.60;;;22.60;37.30;;;;;;4997144;28;20505;-73
2022/05/09 11:11:07;;;;;;;8.03;7.23;;;22.70;37.50;;;;;;4976392;28;20459;-74
2022/05/09 11:13:49;;;;;;;7.37;6.70;;;22.60;37.20;;;;;;4976941;28;20514;-72
2022/05/09 11:16:24;;;;;;;6.30;5.80;;;22.60;36.80;;;;;;4976019;28;20432;-74
2022/05/09 11:19:21;;;;;;;7.13;6.50;;;22.90;37.10;;;;;;4984585;28;20461;-74
2022/05/09 11:22:04;;;;;;;7.33;6.20;;;23.10;36.50;;;;;;4997465;28;20452;-72
2022/05/09 11:24:58;;;;;;;7.40;6.70;;;23.30;36.00;;;;;;4991335;28;20437;-70
2022/05/09 11:27:44;;;;;;;7.77;7.07;;;23.30;35.20;;;;;;4982933;28;20472;-74
2022/05/09 11:30:31;;;;;;;7.37;6.67;;;23.00;35.60;;;;;;4996133;28;20463;-74
2022/05/09 11:33:23;;;;;;;8.03;7.23;;;22.90;35.70;;;;;;4995941;28;20435;-74
2022/05/09 11:35:54;;;;;;;7.57;6.87;;;23.10;34.20;;;;;;4995318;28;20817;-73
2022/05/09 11:38:33;;;;;;;7.90;6.67;;;23.20;34.20;;;;;;4991928;28;20535;-75
2022/05/09 11:41:18;;;;;;;7.60;6.90;;;23.50;34.00;;;;;;4995744;28;21028;-73
2022/05/09 11:44:14;;;;;;;8.80;7.57;;;23.60;34.00;;;;;;4979923;28;20537;-73
2022/05/09 11:47:01;;;;;;;7.53;6.80;;;23.60;34.10;;;;;;4975632;28;20867;-72
2022/05/09 11:49:45;;;;;;;7.63;6.90;;;23.40;34.30;;;;;;4975597;28;20476;-73
2022/05/09 11:52:22;;;;;;;8.87;6.80;;;23.70;33.20;;;;;;4994316;28;20494;-72
2022/05/09 11:54:49;;;;;;;6.47;5.97;;;23.50;33.30;;;;;;4997638;28;20518;-72
2022/05/09 11:57:23;;;;;;;6.57;6.00;;;23.30;34.60;;;;;;4995867;28;20430;-72
2022/05/09 11:59:53;;;;;;;11.93;7.20;;;23.70;33.40;;;;;;4991413;28;20551;-72
2022/05/09 12:02:49;;;;;;;8.80;7.67;;;23.70;33.50;;;;;;4978513;28;20551;-72
2022/05/09 12:05:54;;;;;;;7.50;6.70;;;23.30;34.00;;;;;;4990782;28;20466;-72
2022/05/09 12:08:42;;;;;;;9.27;7.27;;;23.00;34.90;;;;;;4989102;28;20615;-73
2022/05/09 12:11:52;;;;;;;7.70;6.90;;;23.40;34.40;;;;;;5012991;28;20458;-72
2022/05/09 12:14:46;;;;;;;7.40;6.70;;;23.30;34.80;;;;;;4915775;29;20587;-73
2022/05/09 12:17:21;;;;;;;8.30;7.50;;;23.80;32.00;;;;;;4933942;29;20982;-71
2022/05/09 12:19:48;;;;;;;8.20;7.40;;;23.60;32.90;;;;;;4932877;29;20852;-74
2022/05/09 12:22:37;;;;;;;9.80;6.87;;;23.50;33.60;;;;;;4919723;29;20503;-70
2022/05/09 12:25:09;;;;;;;7.20;6.50;;;23.70;31.90;;;;;;4920353;29;20477;-70
2022/05/09 12:28:03;;;;;;;7.33;6.50;;;23.80;32.00;;;;;;4914502;29;20459;-74
2022/05/09 12:30:48;;;;;;;7.70;6.90;;;23.70;32.30;;;;;;4907464;29;20447;-74
2022/05/09 12:33:29;;;;;;;7.63;6.93;;;23.80;32.10;;;;;;4929003;29;20493;-71
2022/05/09 12:35:59;;;;;;;7.27;6.50;;;23.90;32.10;;;;;;4918021;29;20455;-75
2022/05/09 12:38:31;;;;;;;7.63;6.93;;;24.20;31.80;;;;;;4910201;29;20485;-72
2022/05/09 12:41:02;;;;;;;7.53;6.77;;;24.40;32.60;;;;;;4900835;29;20479;-72
2022/05/09 12:43:30;;;;;;;7.10;6.50;;;24.20;31.80;;;;;;4908030;29;20458;-72
2022/05/09 12:45:58;;;;;;;11.03;6.90;;;23.90;32.10;;;;;;4977087;28;20556;-72
2022/05/09 12:48:25;;;;;;;8.03;7.33;;;24.40;31.70;;;;;;5007677;28;20459;-73
2022/05/09 12:50:52;;;;;;;6.83;6.07;;;24.30;31.70;;;;;;4989096;28;20527;-74
2022/05/09 12:53:20;;;;;;;7.40;6.67;;;24.10;32.30;;;;;;4985468;28;20423;-71
2022/05/09 12:55:55;;;;;;;10.90;6.17;;;24.20;32.40;;;;;;5005978;28;20493;-73
2022/05/09 12:58:34;;;;;;;7.43;6.70;;;24.10;32.00;;;;;;5006298;28;20466;-73
2022/05/09 13:01:08;;;;;;;14.70;6.60;;;24.20;31.20;;;;;;5004050;28;20562;-74
2022/05/09 13:03:49;;;;;;;8.30;6.53;;;24.40;31.60;;;;;;4991722;28;20449;-73
2022/05/09 13:06:20;;;;;;;8.87;6.17;;;24.50;31.20;;;;;;4998521;28;20450;-73
2022/05/09 13:08:47;;;;;;;8.47;6.30;;;24.80;30.50;;;;;;4984744;28;20463;-73